Time;durP1;ratioP1;P1;durP2;ratioP2;P2;SDS_P1;SDS_P2;PMS_P1;PMS_P2;Temp;Humidity;BMP_temperature;BMP_pressure;BME280_temperature;BME280_humidity;BME280_pressure;Samples;Min_cycle;Max_cycle;Signal;HPM_P1;HPM_P2
2022/07/04 00:01:20;;;;;;;1.70;0.60;;;;;;;16.08;73.88;101099.05;107992;1279;59132;-84
2022/07/04 00:03:47;;;;;;;1.30;0.60;;;;;;;16.02;73.46;101097.71;107785;1279;74916;-83
2022/07/04 00:06:15;;;;;;;0.60;0.40;;;;;;;15.96;73.37;101097.64;107881;1279;72808;-83
2022/07/04 00:08:42;;;;;;;1.50;0.70;;;;;;;15.91;73.33;101096.27;107676;1279;73972;-84
2022/07/04 00:11:15;;;;;;;0.70;0.40;;;;;;;15.86;73.36;101097.30;107795;1279;63372;-83
2022/07/04 00:13:43;;;;;;;1.60;0.60;;;;;;;15.81;73.60;101098.70;107772;1279;61702;-83
2022/07/04 00:16:16;;;;;;;1.20;0.60;;;;;;;15.76;73.75;101099.34;107710;1279;76268;-83
2022/07/04 00:18:43;;;;;;;0.60;0.40;;;;;;;15.70;73.68;101099.33;107975;1278;72125;-83
2022/07/04 00:21:16;;;;;;;1.40;0.60;;;;;;;15.65;73.83;101097.77;107705;1279;72969;-83
2022/07/04 00:23:43;;;;;;;3.70;0.60;;;;;;;15.61;74.02;101100.89;107700;1279;62270;-84
2022/07/04 00:26:16;;;;;;;2.90;0.80;;;;;;;15.59;74.00;101103.69;107750;1279;60223;-83
2022/07/04 00:28:43;;;;;;;1.30;0.50;;;;;;;15.56;73.99;101104.69;107813;1279;75018;-83
2022/07/04 00:31:17;;;;;;;1.90;0.60;;;;;;;15.54;74.15;101103.98;107694;1279;71628;-83
2022/07/04 00:33:44;;;;;;;1.80;0.50;;;;;;;15.51;74.23;101107.98;107883;1279;73872;-83
2022/07/04 00:36:18;;;;;;;1.40;0.70;;;;;;;15.47;74.40;101107.96;107753;1279;62326;-83
2022/07/04 00:38:45;;;;;;;1.50;0.70;;;;;;;15.42;74.34;101102.51;107948;1279;61799;-83
2022/07/04 00:41:18;;;;;;;3.30;0.70;;;;;;;15.37;74.83;101101.21;107880;1279;75326;-83
2022/07/04 00:44:02;;;;;;;1.40;0.60;;;;;;;15.33;74.99;101105.98;107795;1279;71930;-83
2022/07/04 00:46:43;;;;;;;1.50;0.70;;;;;;;15.28;75.20;101103.45;107950;1279;72621;-83
2022/07/04 00:49:11;;;;;;;2.00;0.80;;;;;;;15.24;75.09;101106.51;107942;1279;62067;-83
2022/07/04 00:51:39;;;;;;;2.00;0.50;;;;;;;15.19;75.33;101107.88;107867;1279;60398;-83
2022/07/04 00:54:07;;;;;;;2.60;0.80;;;;;;;15.14;75.75;101108.30;107829;1279;75086;-83
2022/07/04 00:56:39;;;;;;;1.80;0.70;;;;;;;15.09;76.58;101112.77;107768;1279;72751;-83
2022/07/04 00:59:06;;;;;;;1.00;0.70;;;;;;;15.03;76.31;101110.68;107814;1279;73036;-84
2022/07/04 01:01:34;;;;;;;1.90;0.90;;;;;;;14.99;76.25;101108.59;108014;1279;63220;-84
2022/07/04 01:04:03;;;;;;;3.00;0.70;;;;;;;14.94;76.46;101113.83;107854;1279;60654;-84
2022/07/04 01:06:31;;;;;;;1.00;0.70;;;;;;;14.89;76.32;101113.24;108008;1278;74904;-84
2022/07/04 01:08:59;;;;;;;1.60;0.80;;;;;;;14.84;76.73;101109.71;107974;1279;71175;-83
2022/07/04 01:11:26;;;;;;;1.70;0.70;;;;;;;14.79;76.93;101113.03;107848;1279;74517;-83
2022/07/04 01:13:54;;;;;;;1.40;0.80;;;;;;;14.73;77.30;101109.17;107797;1279;62086;-83
2022/07/04 01:16:24;;;;;;;1.10;0.70;;;;;;;14.68;77.88;101110.47;107941;1279;60632;-84
2022/07/04 01:18:52;;;;;;;4.00;1.00;;;;;;;14.63;78.35;101109.31;107170;1279;1065738;-83
2022/07/04 01:21:18;;;;;;;3.00;0.70;;;;;;;14.59;78.85;101111.45;107917;1279;72885;-83
2022/07/04 01:23:46;;;;;;;1.50;0.70;;;;;;;14.55;79.66;101110.98;107915;1279;72725;-83
2022/07/04 01:26:22;;;;;;;3.20;0.70;;;;;;;14.52;79.44;101107.63;107967;1279;63554;-83
2022/07/04 01:28:49;;;;;;;1.70;0.90;;;;;;;14.48;79.32;101109.32;107724;1279;60680;-83
2022/07/04 01:31:16;;;;;;;1.80;0.80;;;;;;;14.44;79.54;101109.19;107762;1279;74693;-83
2022/07/04 01:33:43;;;;;;;1.70;0.80;;;;;;;14.38;81.24;101109.71;107952;1279;71219;-83
2022/07/04 01:36:16;;;;;;;3.20;1.00;;;;;;;14.35;81.36;101114.27;107535;1279;74227;-83
2022/07/04 01:38:43;;;;;;;3.50;1.00;;;;;;;14.31;81.99;101116.27;107742;1281;63549;-83
2022/07/04 01:41:19;;;;;;;1.60;0.80;;;;;;;14.27;81.75;101117.48;107950;1279;60320;-83
2022/07/04 01:43:46;;;;;;;3.10;0.80;;;;;;;14.24;81.76;101120.65;107737;1279;76113;-83
2022/07/04 01:46:13;;;;;;;3.50;1.10;;;;;;;14.20;81.62;101116.38;107905;1280;71366;-83
2022/07/04 01:48:40;;;;;;;2.10;0.90;;;;;;;14.17;82.17;101110.02;107895;1278;73091;-83
2022/07/04 01:51:17;;;;;;;1.20;0.70;;;;;;;14.13;82.51;101112.11;107777;1279;62075;-83
2022/07/04 01:53:44;;;;;;;1.50;0.80;;;;;;;14.10;82.88;101108.34;107792;1281;60508;-83
2022/07/04 01:56:14;;;;;;;2.00;1.10;;;;;;;14.06;82.76;101112.69;107899;1279;75403;-83
2022/07/04 01:58:42;;;;;;;3.70;1.10;;;;;;;14.04;83.41;101112.99;107924;1279;72462;-83
2022/07/04 02:01:29;;;;;;;2.10;1.10;;;;;;;14.01;83.42;101111.72;107927;1280;74047;-83
2022/07/04 02:03:57;;;;;;;2.60;1.00;;;;;;;13.98;83.42;101112.74;107551;1279;62076;-83
2022/07/04 02:06:24;;;;;;;3.90;1.20;;;;;;;13.94;83.93;101104.78;107791;1279;60762;-83
2022/07/04 02:14:23;;;;;;;3.40;1.20;;;;;;;13.84;84.22;101101.97;107791;1279;74615;-83
2022/07/04 02:16:50;;;;;;;2.30;1.20;;;;;;;13.81;84.73;101106.12;107914;1279;63310;-83
2022/07/04 02:19:18;;;;;;;4.80;1.50;;;;;;;13.79;85.26;101109.42;107936;1280;61534;-83
2022/07/04 02:21:45;;;;;;;2.20;0.90;;;;;;;13.78;85.53;101109.27;107927;1279;76580;-83
2022/07/04 02:24:12;;;;;;;2.10;1.20;;;;;;;13.76;86.17;101107.02;107668;1281;71562;-83
2022/07/04 02:26:39;;;;;;;2.80;0.90;;;;;;;13.72;85.82;101111.86;107983;1279;74323;-83
2022/07/04 02:29:06;;;;;;;1.80;0.80;;;;;;;13.70;85.37;101112.20;107480;1282;62216;-83
2022/07/04 02:31:33;;;;;;;1.50;1.00;;;;;;;13.66;85.31;101113.19;107937;1280;60491;-83
2022/07/04 02:34:00;;;;;;;2.40;1.10;;;;;;;13.62;85.51;101114.20;107697;1281;75391;-83
2022/07/04 02:36:28;;;;;;;3.50;1.10;;;;;;;13.58;85.82;101110.20;107771;1281;72577;-83
2022/07/04 02:38:55;;;;;;;2.70;1.10;;;;;;;13.54;85.70;101113.55;107694;1281;73010;-83
2022/07/04 02:41:22;;;;;;;1.60;1.00;;;;;;;13.51;85.71;101113.42;107890;1281;63691;-82
2022/07/04 02:43:49;;;;;;;1.70;1.00;;;;;;;13.46;86.00;101113.23;107761;1281;60701;-82
2022/07/04 02:46:16;;;;;;;1.80;1.10;;;;;;;13.40;85.65;101112.67;107593;1281;74986;-83
2022/07/04 02:48:43;;;;;;;3.60;1.30;;;;;;;13.36;85.79;101116.73;107937;1279;72565;-83
2022/07/04 02:51:16;;;;;;;3.70;1.30;;;;;;;13.32;86.32;101124.88;107774;1281;73319;-83
2022/07/04 02:53:43;;;;;;;3.30;1.10;;;;;;;13.29;86.79;101127.34;107882;1281;62596;-83
2022/07/04 02:56:16;;;;;;;1.70;1.10;;;;;;;13.27;87.42;101128.77;107970;1279;60420;-82
2022/07/04 02:58:43;;;;;;;2.00;1.20;;;;;;;13.25;87.61;101127.08;107598;1280;75258;-83
2022/07/04 03:01:19;;;;;;;3.10;1.30;;;;;;;13.23;88.22;101129.14;107903;1279;71557;-83
2022/07/04 03:03:47;;;;;;;2.00;1.30;;;;;;;13.21;88.59;101137.67;107786;1279;72942;-83
2022/07/04 03:06:17;;;;;;;2.50;1.30;;;;;;;13.19;88.97;101142.36;107891;1280;62996;-83
2022/07/04 03:08:44;;;;;;;2.90;1.50;;;;;;;13.18;89.48;101146.06;107678;1281;59752;-82
2022/07/04 03:11:21;;;;;;;5.00;1.70;;;;;;;13.17;89.88;101151.09;107883;1281;74870;-82
2022/07/04 03:13:48;;;;;;;3.60;2.00;;;;;;;13.17;90.56;101148.61;107848;1281;72778;-82
2022/07/04 03:16:16;;;;;;;3.40;1.80;;;;;;;13.17;90.88;101146.30;107725;1278;74352;-83
2022/07/04 03:18:43;;;;;;;3.10;2.10;;;;;;;13.17;91.20;101149.65;107784;1280;61975;-83
2022/07/04 03:21:16;;;;;;;1.70;1.20;;;;;;;13.17;91.26;101153.80;107755;1281;60365;-83
2022/07/04 03:23:57;;;;;;;2.50;1.90;;;;;;;13.17;91.26;101154.36;107936;1279;74133;-82
2022/07/04 03:26:32;;;;;;;4.30;2.30;;;;;;;13.16;91.53;101162.47;107836;1279;73344;-82
2022/07/04 03:29:00;;;;;;;2.50;1.90;;;;;;;13.15;91.77;101166.67;107767;1281;74037;-83
2022/07/04 03:31:28;;;;;;;3.80;2.30;;;;;;;13.14;91.50;101167.05;107984;1279;62271;-83
2022/07/04 03:33:55;;;;;;;3.50;2.10;;;;;;;13.16;91.71;101171.36;108431;1279;60996;-83
2022/07/04 03:36:22;;;;;;;2.60;1.80;;;;;;;13.16;91.86;101176.27;108377;1280;75866;-83
2022/07/04 03:38:49;;;;;;;3.70;2.60;;;;;;;13.17;91.86;101175.77;108377;1281;71471;-83
2022/07/04 03:41:17;;;;;;;4.10;2.50;;;;;;;13.19;92.32;101177.11;108455;1280;73104;-83
2022/07/04 03:43:44;;;;;;;3.90;2.30;;;;;;;13.22;92.10;101180.18;108379;1280;62419;-83
2022/07/04 03:46:20;;;;;;;3.50;2.20;;;;;;;13.24;92.07;101179.70;108301;1281;60740;-83
2022/07/04 03:48:47;;;;;;;2.50;2.20;;;;;;;13.28;92.30;101182.73;108235;1279;73943;-83
2022/07/04 03:51:17;;;;;;;5.10;3.20;;;;;;;13.31;92.43;101184.83;108479;1281;73588;-83
2022/07/04 03:53:44;;;;;;;3.30;1.90;;;;;;;13.34;92.51;101189.23;108298;1281;73149;-83
2022/07/04 03:56:17;;;;;;;2.80;2.20;;;;;;;13.38;92.37;101193.73;108458;1280;61793;-83
2022/07/04 03:58:48;;;;;;;5.00;2.60;;;;;;;13.42;92.10;101190.30;108514;1279;61286;-84
2022/07/04 04:01:19;;;;;;;5.60;2.30;;;;;;;13.45;91.76;101193.26;108359;1279;75580;-84
2022/07/04 04:06:32;;;;;;;6.20;2.70;;;;;;;13.63;90.93;101202.51;107967;1279;73160;-83
2022/07/04 04:08:59;;;;;;;4.60;3.20;;;;;;;13.78;90.21;101208.38;108049;1279;62271;-84
2022/07/04 04:11:26;;;;;;;5.20;2.80;;;;;;;13.93;89.88;101205.52;108043;1279;61610;-84
2022/07/04 04:13:53;;;;;;;3.80;2.80;;;;;;;14.07;89.31;101206.16;108001;1279;73765;-84
2022/07/04 04:16:20;;;;;;;5.30;3.10;;;;;;;14.22;88.93;101213.40;108000;1279;71371;-84
2022/07/04 04:18:47;;;;;;;4.60;2.80;;;;;;;14.37;88.50;101212.39;107764;1281;74075;-84
2022/07/04 04:21:15;;;;;;;5.70;3.00;;;;;;;14.51;88.23;101217.21;107935;1279;61276;-84
2022/07/04 04:23:42;;;;;;;8.10;2.80;;;;;;;14.64;87.75;101214.53;107840;1279;61691;-84
2022/07/04 04:26:12;;;;;;;7.60;3.00;;;;;;;14.78;87.42;101214.89;108007;1279;74471;-89
2022/07/04 04:28:43;;;;;;;7.60;2.70;;;;;;;14.94;87.38;101222.48;107677;1279;71254;-89
2022/07/04 04:31:17;;;;;;;8.40;2.80;;;;;;;15.10;87.01;101224.93;107917;1279;74045;-89
2022/07/04 04:39:04;;;;;;;6.40;2.90;;;;;;;15.68;85.22;101227.12;107681;1268;162368;-86
2022/07/04 04:41:32;;;;;;;8.90;3.10;;;;;;;15.83;84.64;101226.35;107794;1280;72671;-85
2022/07/04 04:43:59;;;;;;;8.60;2.70;;;;;;;15.96;83.97;101226.20;107793;1281;74298;-86
2022/07/04 04:46:26;;;;;;;8.10;2.80;;;;;;;16.09;83.66;101231.80;107677;1279;62015;-86
2022/07/04 04:48:54;;;;;;;8.50;2.90;;;;;;;16.23;83.16;101230.17;107781;1281;60423;-86
2022/07/04 04:51:21;;;;;;;10.70;3.00;;;;;;;16.37;82.61;101228.26;107814;1281;75677;-85
2022/07/04 04:53:51;;;;;;;9.20;3.30;;;;;;;16.49;82.15;101228.05;107757;1281;71474;-86
2022/07/04 04:56:18;;;;;;;13.70;3.60;;;;;;;16.61;81.60;101233.86;107785;1281;73433;-86
2022/07/04 04:58:46;;;;;;;10.30;3.40;;;;;;;16.71;81.05;101240.81;107706;1281;63415;-85
2022/07/04 05:01:13;;;;;;;9.70;3.00;;;;;;;16.83;80.97;101244.52;107539;1281;61938;-86
2022/07/04 05:04:00;;;;;;;8.10;3.40;;;;;;;16.92;80.18;101244.55;107727;1281;77108;-86
2022/07/04 05:06:27;;;;;;;4.80;3.10;;;;;;;16.94;79.98;101244.36;107569;1281;72353;-86
2022/07/04 05:08:55;;;;;;;6.80;3.40;;;;;;;16.97;79.93;101237.92;107410;1281;71971;-85
2022/07/04 05:11:22;;;;;;;12.40;3.70;;;;;;;17.00;79.81;101239.12;107641;1279;61508;-85
2022/07/04 05:13:49;;;;;;;8.60;3.80;;;;;;;17.04;79.68;101240.27;107661;1280;61421;-85
2022/07/04 05:16:17;;;;;;;6.90;3.20;;;;;;;17.11;79.63;101243.27;107835;1281;74610;-85
2022/07/04 05:18:44;;;;;;;5.90;3.10;;;;;;;17.08;79.17;101247.09;107636;1281;71863;-86
2022/07/04 05:21:11;;;;;;;7.20;3.50;;;;;;;17.08;79.13;101246.15;107588;1281;74685;-85
2022/07/04 05:23:39;;;;;;;6.70;3.20;;;;;;;17.05;78.88;101250.55;107713;1281;63053;-85
2022/07/04 05:26:12;;;;;;;7.60;3.30;;;;;;;17.06;79.24;101247.34;107711;1281;62592;-85
2022/07/04 05:28:40;;;;;;;7.80;3.60;;;;;;;17.16;79.26;101248.58;107695;1279;77030;-86
2022/07/04 05:31:10;;;;;;;8.90;3.10;;;;;;;17.29;78.92;101250.91;107715;1281;71472;-84
2022/07/04 05:33:37;;;;;;;6.00;3.00;;;;;;;17.45;78.34;101250.54;107617;1280;74346;-85
2022/07/04 05:36:10;;;;;;;6.20;2.70;;;;;;;17.48;77.30;101247.27;107793;1279;62563;-84
2022/07/04 05:38:38;;;;;;;6.80;2.90;;;;;;;17.47;76.83;101245.87;107621;1281;60369;-85
2022/07/04 05:41:05;;;;;;;6.30;3.00;;;;;;;17.49;76.14;101252.69;107632;1281;76296;-84
2022/07/04 05:43:40;;;;;;;6.70;2.60;;;;;;;17.49;76.00;101250.41;107493;1281;72394;-85
2022/07/04 05:46:10;;;;;;;4.70;2.80;;;;;;;17.49;75.89;101248.60;107674;1281;73993;-85
2022/07/04 05:48:38;;;;;;;6.70;2.80;;;;;;;17.56;75.73;101248.02;107618;1281;61930;-85
2022/07/04 05:51:11;;;;;;;6.70;2.70;;;;;;;17.72;75.47;101244.81;107778;1281;59784;-85
2022/07/04 05:53:38;;;;;;;7.20;2.70;;;;;;;17.93;74.32;101248.65;107461;1281;77075;-84
2022/07/04 05:56:11;;;;;;;8.40;2.80;;;;;;;17.98;73.51;101246.73;107472;1281;71526;-85
2022/07/04 05:58:41;;;;;;;5.00;2.60;;;;;;;17.94;72.87;101248.06;107610;1282;74258;-86
2022/07/04 06:01:11;;;;;;;5.30;2.50;;;;;;;17.90;72.61;101250.23;107624;1281;62593;-84
2022/07/04 06:03:38;;;;;;;7.10;2.50;;;;;;;17.88;72.20;101249.77;107760;1280;60984;-84
2022/07/04 06:06:11;;;;;;;8.40;2.80;;;;;;;17.95;72.56;101247.56;107359;1281;76055;-85
2022/07/04 06:08:38;;;;;;;5.20;2.10;;;;;;;18.05;72.04;101247.17;107499;1282;72284;-84
2022/07/04 06:11:10;;;;;;;5.30;2.10;;;;;;;18.09;70.90;101238.73;107578;1281;73815;-85
2022/07/04 06:13:37;;;;;;;3.50;1.80;;;;;;;18.01;70.76;101235.58;107635;1281;63030;-85
2022/07/04 06:16:04;;;;;;;6.20;2.40;;;;;;;18.03;71.17;101240.08;107780;1279;60679;-84
2022/07/04 06:18:38;;;;;;;6.80;2.10;;;;;;;18.12;69.34;101237.98;107815;1279;75561;-85
2022/07/04 06:21:12;;;;;;;4.10;1.40;;;;;;;18.24;69.39;101232.73;107617;1279;71577;-85
2022/07/04 06:23:39;;;;;;;4.00;1.40;;;;;;;18.38;68.34;101228.50;107644;1281;70795;-85
2022/07/04 06:26:10;;;;;;;3.60;1.50;;;;;;;18.53;68.36;101227.39;107596;1281;64344;-84
2022/07/04 06:28:37;;;;;;;3.70;1.60;;;;;;;18.66;67.01;101227.20;107833;1279;60969;-84
2022/07/04 06:31:14;;;;;;;4.60;1.60;;;;;;;18.79;67.13;101219.34;107626;1281;75970;-85
2022/07/04 06:36:27;;;;;;;3.40;1.60;;;;;;;18.91;65.99;101215.30;107777;1279;71820;-85
2022/07/04 06:38:54;;;;;;;5.50;1.60;;;;;;;19.00;64.83;101221.60;107786;1280;60853;-84
2022/07/04 06:41:21;;;;;;;4.40;1.70;;;;;;;19.05;64.29;101224.83;107587;1279;62995;-84
2022/07/04 06:43:49;;;;;;;4.70;1.80;;;;;;;19.09;63.93;101224.67;107537;1279;75219;-85
2022/07/04 06:46:16;;;;;;;5.10;1.70;;;;;;;19.07;63.21;101232.67;107735;1281;71660;-85
2022/07/04 06:48:44;;;;;;;7.40;1.90;;;;;;;19.08;63.03;101235.77;107816;1280;73856;-85
2022/07/04 06:51:11;;;;;;;4.50;1.80;;;;;;;19.15;63.47;101239.85;107572;1281;62465;-86
2022/07/04 06:53:38;;;;;;;4.90;2.20;;;;;;;19.16;63.46;101242.08;107593;1281;63254;-85
2022/07/04 06:56:12;;;;;;;7.50;2.50;;;;;;;19.32;63.19;101243.40;107802;1281;74575;-85
2022/07/04 06:58:39;;;;;;;3.90;1.90;;;;;;;19.48;62.62;101245.42;107568;1281;71107;-85
2022/07/04 07:01:12;;;;;;;5.10;2.20;;;;;;;19.67;62.70;101243.06;107605;1281;73739;-85
2022/07/04 07:03:39;;;;;;;7.70;1.80;;;;;;;19.77;61.08;101245.06;107470;1281;63012;-85
2022/07/04 07:06:12;;;;;;;2.50;1.10;;;;;;;19.68;59.16;101253.66;107663;1281;60863;-86
2022/07/04 07:08:40;;;;;;;5.10;1.50;;;;;;;19.62;59.68;101255.41;107647;1280;76221;-86
2022/07/04 07:11:13;;;;;;;3.50;1.40;;;;;;;19.64;60.31;101251.95;107778;1279;71615;-86
2022/07/04 07:13:45;;;;;;;8.50;1.40;;;;;;;19.65;60.20;101252.23;107880;1279;73696;-86
2022/07/04 07:16:15;;;;;;;3.40;1.20;;;;;;;19.60;59.24;101251.20;107689;1279;61421;-86
2022/07/04 07:18:43;;;;;;;5.30;1.20;;;;;;;19.71;59.05;101251.23;107819;1281;60467;-86
2022/07/04 07:24:52;;;;;;;3.90;1.30;;;;;;;19.59;59.40;101248.35;107785;1280;69923;-83
2022/07/04 07:27:19;;;;;;;5.60;1.50;;;;;;;19.64;59.02;101252.08;107517;1281;74055;-83
2022/07/04 07:29:47;;;;;;;3.20;1.30;;;;;;;19.75;59.03;101248.52;107541;1281;61513;-83
2022/07/04 07:32:14;;;;;;;4.90;1.50;;;;;;;19.75;58.36;101256.27;107452;1282;61095;-83
2022/07/04 07:34:41;;;;;;;5.80;1.30;;;;;;;19.65;58.81;101253.35;107650;1280;75081;-83
2022/07/04 07:37:09;;;;;;;5.20;1.20;;;;;;;19.56;58.12;101256.25;107861;1279;71102;-83
2022/07/04 07:39:36;;;;;;;4.90;1.10;;;;;;;19.39;57.29;101253.48;107476;1281;73288;-83
2022/07/04 07:42:08;;;;;;;6.00;1.10;;;;;;;19.21;57.92;101250.78;107645;1281;60431;-83
2022/07/04 07:44:35;;;;;;;4.10;0.90;;;;;;;19.28;57.87;101245.27;107629;1281;59927;-83
2022/07/04 07:47:02;;;;;;;4.00;1.00;;;;;;;19.50;57.54;101250.33;107794;1279;74965;-83
2022/07/04 07:49:30;;;;;;;4.20;1.20;;;;;;;19.68;56.44;101255.60;107569;1281;72626;-83
2022/07/04 07:51:57;;;;;;;4.10;1.10;;;;;;;19.81;55.95;101250.53;107723;1280;75692;-83
2022/07/04 07:54:24;;;;;;;4.10;0.70;;;;;;;19.92;54.08;101244.08;107586;1281;62121;-83
2022/07/04 07:57:12;;;;;;;2.00;0.80;;;;;;;19.83;53.50;101252.75;107648;1281;61922;-83
2022/07/04 07:59:39;;;;;;;3.50;1.00;;;;;;;19.77;54.39;101246.80;107624;1281;76692;-83
2022/07/04 08:02:07;;;;;;;2.90;0.80;;;;;;;19.81;54.69;101233.14;107597;1281;73518;-83
2022/07/04 08:04:34;;;;;;;3.10;1.00;;;;;;;19.97;54.56;101233.41;107816;1278;73961;-83
2022/07/04 08:07:14;;;;;;;3.10;0.90;;;;;;;20.09;55.04;101232.33;107606;1281;61274;-83
2022/07/04 08:09:49;;;;;;;3.20;1.00;;;;;;;20.27;54.53;101235.17;107514;1281;59505;-83
2022/07/04 08:12:16;;;;;;;5.60;1.20;;;;;;;20.39;53.95;101239.39;107586;1281;75264;-83
2022/07/04 08:14:43;;;;;;;7.10;0.90;;;;;;;20.36;53.35;101244.44;107631;1281;70635;-83
2022/07/04 08:17:12;;;;;;;4.10;0.90;;;;;;;20.30;52.89;101246.25;107507;1281;74040;-83
2022/07/04 08:19:39;;;;;;;1.70;0.70;;;;;;;20.15;51.77;101241.84;107621;1281;60527;-83
2022/07/04 08:22:07;;;;;;;3.40;0.80;;;;;;;20.13;52.26;101243.23;107820;1279;61448;-83
2022/07/04 08:24:43;;;;;;;2.70;1.20;;;;;;;20.39;52.90;101237.73;107624;1280;73910;-83
2022/07/04 08:27:10;;;;;;;1.90;0.70;;;;;;;20.71;52.28;101237.61;107509;1281;72190;-83
2022/07/04 08:29:37;;;;;;;3.10;0.70;;;;;;;21.00;51.76;101237.64;107616;1281;72950;-83
2022/07/04 08:32:07;;;;;;;4.50;0.80;;;;;;;21.20;50.69;101239.49;107537;1281;59716;-83
2022/07/04 08:34:35;;;;;;;3.60;0.80;;;;;;;21.08;49.99;101239.85;107628;1280;61832;-83
2022/07/04 08:37:03;;;;;;;5.80;0.80;;;;;;;21.09;49.42;101246.77;107603;1281;74810;-83
2022/07/04 08:39:31;;;;;;;3.40;0.70;;;;;;;21.10;48.19;101250.91;107817;1281;72878;-83
2022/07/04 08:42:05;;;;;;;3.00;0.60;;;;;;;21.15;46.18;101251.73;107811;1279;74168;-83
2022/07/04 08:44:38;;;;;;;2.70;0.50;;;;;;;21.08;45.31;101241.67;107799;1281;62155;-84
2022/07/04 08:47:09;;;;;;;3.70;0.70;;;;;;;20.77;47.16;101243.34;107706;1281;60859;-83
2022/07/04 08:49:45;;;;;;;2.70;0.80;;;;;;;20.68;48.46;101247.66;107540;1281;76368;-83
2022/07/04 08:52:19;;;;;;;1.60;0.40;;;;;;;20.81;48.66;101236.68;107666;1281;71645;-83
2022/07/04 09:00:17;;;;;;;1.90;0.50;;;;;;;21.18;46.80;101241.05;107597;1280;62316;-83
2022/07/04 09:02:45;;;;;;;4.30;0.60;;;;;;;21.33;45.70;101233.48;107840;1281;75124;-83
2022/07/04 09:05:12;;;;;;;2.10;0.70;;;;;;;21.42;45.10;101235.77;107841;1280;70663;-83
2022/07/04 09:07:39;;;;;;;2.40;0.50;;;;;;;21.68;44.48;101238.41;107610;1281;74033;-83
2022/07/04 09:10:07;;;;;;;1.90;0.50;;;;;;;21.88;43.92;101239.37;107827;1280;60330;-83
2022/07/04 09:12:34;;;;;;;3.20;0.60;;;;;;;22.06;44.13;101240.81;107558;1281;60200;-83
2022/07/04 09:15:21;;;;;;;2.70;0.60;;;;;;;21.84;42.10;101249.59;107832;1280;77772;-83
2022/07/04 09:17:48;;;;;;;2.70;0.40;;;;;;;21.56;42.95;101248.46;107642;1281;72524;-83
2022/07/04 09:20:17;;;;;;;3.30;0.60;;;;;;;21.39;43.90;101245.58;107603;1279;73119;-83
2022/07/04 09:22:46;;;;;;;1.90;0.50;;;;;;;21.56;44.26;101242.53;107525;1281;62003;-83
2022/07/04 09:25:16;;;;;;;3.40;0.50;;;;;;;21.76;43.43;101244.59;107439;1279;61455;-83
2022/07/04 09:27:47;;;;;;;3.60;0.50;;;;;;;21.97;41.74;101252.73;107801;1280;75553;-83
2022/07/04 09:30:17;;;;;;;4.00;0.80;;;;;;;22.06;40.41;101248.09;107431;1281;71356;-83
2022/07/04 09:32:47;;;;;;;2.90;0.50;;;;;;;22.12;40.20;101254.08;107591;1280;74303;-83
2022/07/04 09:35:23;;;;;;;3.60;0.60;;;;;;;22.16;40.16;101253.34;107827;1279;62338;-83
2022/07/04 09:37:51;;;;;;;3.00;0.50;;;;;;;22.20;40.69;101257.42;107684;1281;60657;-83
2022/07/04 09:40:33;;;;;;;1.70;0.30;;;;;;;22.31;40.63;101252.34;107629;1281;74718;-83
2022/07/04 09:43:10;;;;;;;2.10;0.50;;;;;;;22.47;40.58;101248.80;107789;1280;73413;-84
2022/07/04 09:45:53;;;;;;;1.50;0.40;;;;;;;22.71;40.96;101242.35;107639;1279;74369;-83
2022/07/04 09:48:20;;;;;;;8.00;0.70;;;;;;;22.46;40.63;101247.05;107624;1281;59621;-83
2022/07/04 09:50:47;;;;;;;7.40;1.10;;;;;;;22.18;39.44;101248.91;107855;1279;59871;-83
2022/07/04 09:53:14;;;;;;;4.00;0.50;;;;;;;22.09;39.22;101240.33;107566;1280;74504;-83
2022/07/04 09:55:42;;;;;;;3.50;0.80;;;;;;;22.02;38.92;101243.77;107695;1279;72795;-83
2022/07/04 09:58:14;;;;;;;2.20;0.40;;;;;;;22.00;38.99;101240.21;107732;1281;73025;-84
2022/07/04 10:00:42;;;;;;;2.10;0.50;;;;;;;22.18;39.35;101237.55;107663;1281;60308;-83
2022/07/04 10:03:32;;;;;;;2.20;0.40;;;;;;;22.41;39.66;101236.52;107763;1280;60483;-83
2022/07/04 10:06:13;;;;;;;1.30;0.30;;;;;;;22.64;38.48;101232.52;107664;1281;77180;-83
2022/07/04 10:08:41;;;;;;;1.60;0.30;;;;;;;22.90;38.54;101224.32;107592;1282;72426;-83
2022/07/04 10:11:09;;;;;;;1.70;0.40;;;;;;;22.79;39.45;101228.89;107829;1279;72940;-83
2022/07/04 10:13:43;;;;;;;2.20;0.40;;;;;;;22.44;40.03;101231.81;107638;1281;60416;-83
2022/07/04 10:16:11;;;;;;;1.40;0.30;;;;;;;22.23;40.23;101227.46;107669;1281;60425;-83
2022/07/04 10:18:38;;;;;;;2.10;0.50;;;;;;;22.20;39.40;101229.31;107852;1281;74950;-83
2022/07/04 10:21:05;;;;;;;1.60;0.50;;;;;;;22.31;39.42;101218.96;107685;1281;71484;-83
2022/07/04 10:23:33;;;;;;;1.20;0.40;;;;;;;22.58;39.71;101215.77;107756;1280;73882;-83
2022/07/04 10:26:02;;;;;;;1.70;0.50;;;;;;;22.84;40.09;101204.92;107834;1279;60972;-83
2022/07/04 10:28:32;;;;;;;1.70;0.30;;;;;;;22.95;39.62;101210.95;107512;1281;61654;-83
2022/07/04 10:30:59;;;;;;;2.10;0.40;;;;;;;22.76;39.69;101211.30;107648;1281;75487;-83
2022/07/04 10:33:28;;;;;;;0.90;0.30;;;;;;;22.59;40.03;101204.85;107685;1281;72105;-83
2022/07/04 10:35:58;;;;;;;4.10;0.40;;;;;;;22.66;40.65;101205.40;107793;1279;72926;-83
2022/07/04 10:38:30;;;;;;;2.40;0.40;;;;;;;22.80;40.07;101207.02;107457;1281;61641;-83
2022/07/04 10:41:07;;;;;;;2.20;0.40;;;;;;;22.99;39.34;101196.73;107824;1279;59536;-83
2022/07/04 10:43:41;;;;;;;1.40;0.30;;;;;;;23.15;38.99;101195.92;107687;1281;74349;-83
2022/07/04 10:46:33;;;;;;;1.50;0.40;;;;;;;23.29;38.97;101199.06;107823;1279;69861;-83
2022/07/04 10:49:01;;;;;;;1.80;0.40;;;;;;;23.33;38.11;101202.15;107827;1280;74651;-84
2022/07/04 10:51:52;;;;;;;0.70;0.40;;;;;;;23.30;37.67;101202.16;107653;1281;61672;-83
2022/07/04 10:54:31;;;;;;;1.10;0.50;;;;;;;23.34;37.28;101199.29;107745;1280;60502;-83
2022/07/04 10:57:14;;;;;;;1.20;0.40;;;;;;;23.43;37.68;101194.88;107630;1281;74726;-83
2022/07/04 10:59:44;;;;;;;1.60;0.40;;;;;;;23.61;37.57;101192.81;107624;1281;72585;-83
2022/07/04 11:02:11;;;;;;;1.70;0.50;;;;;;;23.77;38.15;101192.50;107707;1279;73016;-83
2022/07/04 11:04:54;;;;;;;1.00;0.40;;;;;;;23.85;37.82;101194.79;107658;1281;59793;-83
2022/07/04 11:07:42;;;;;;;3.50;0.60;;;;;;;23.93;37.65;101191.64;107788;1279;61913;-83
2022/07/04 11:10:12;;;;;;;2.50;0.50;;;;;;;24.02;36.83;101198.73;107765;1280;75417;-84
2022/07/04 11:12:56;;;;;;;2.80;0.50;;;;;;;23.88;36.02;101198.23;107727;1280;71149;-87
2022/07/04 11:15:29;;;;;;;3.00;0.60;;;;;;;24.03;36.49;101187.58;107787;1279;73389;-85
2022/07/04 11:18:08;;;;;;;1.80;0.40;;;;;;;24.18;36.30;101187.21;107720;1279;62347;-86
2022/07/04 11:20:38;;;;;;;1.70;0.30;;;;;;;24.27;35.30;101183.13;107605;1281;60507;-86
2022/07/04 11:23:10;;;;;;;2.90;0.40;;;;;;;24.23;35.69;101183.73;107523;1281;75952;-85
2022/07/04 11:25:37;;;;;;;3.40;0.50;;;;;;;24.32;36.22;101182.48;107762;1279;72468;-86
2022/07/04 11:28:33;;;;;;;2.20;0.40;;;;;;;24.36;36.26;101173.31;107494;1280;74252;-85
2022/07/04 11:31:14;;;;;;;2.70;0.50;;;;;;;24.59;35.75;101164.51;107661;1281;60950;-84
2022/07/04 11:33:42;;;;;;;1.80;0.40;;;;;;;24.75;35.44;101170.78;107633;1281;59799;-84
2022/07/04 11:36:17;;;;;;;2.50;0.40;;;;;;;24.83;35.69;101172.52;107464;1280;76157;-84
2022/07/04 11:38:53;;;;;;;1.30;0.30;;;;;;;25.00;35.81;101165.65;107592;1281;71447;-85
2022/07/04 11:47:01;;;;;;;1.10;0.50;;;;;;;25.35;35.21;101153.59;107594;1279;59714;-85
2022/07/04 11:49:28;;;;;;;1.30;0.50;;;;;;;25.35;34.46;101161.73;107760;1280;75866;-85
2022/07/04 11:51:55;;;;;;;2.30;0.40;;;;;;;25.37;34.30;101162.23;107434;1279;71390;-86
2022/07/04 11:54:22;;;;;;;1.90;0.50;;;;;;;25.46;33.91;101153.61;107571;1281;72359;-86
2022/07/04 11:57:15;;;;;;;2.10;0.40;;;;;;;25.42;33.56;101163.80;107597;1279;60594;-85
2022/07/04 11:59:43;;;;;;;2.20;0.50;;;;;;;25.36;33.52;101153.54;107761;1281;60491;-86
2022/07/04 12:02:15;;;;;;;3.60;0.50;;;;;;;25.16;33.60;101166.64;107608;1279;76331;-86